createdAt,value
2022-11-27T00:02:14.311Z,38.37
2022-11-27T00:04:46.792Z,32.92
2022-11-27T00:07:19.920Z,31.40
2022-11-27T00:09:52.494Z,34.40
2022-11-27T00:12:25.319Z,31.83
2022-11-27T00:14:58.030Z,31.65
2022-11-27T00:17:31.101Z,45.45
2022-11-27T00:20:04.843Z,38.88
2022-11-27T00:22:37.759Z,45.83
2022-11-27T00:25:10.347Z,47.60
2022-11-27T00:27:43.293Z,46.15
2022-11-27T00:30:15.817Z,47.55
2022-11-27T00:32:48.841Z,42.03
2022-11-27T00:35:21.387Z,36.78
2022-11-27T00:37:54.438Z,38.00
2022-11-27T00:40:26.900Z,38.90
2022-11-27T00:43:00.050Z,35.43
2022-11-27T00:45:32.620Z,32.07
2022-11-27T00:48:05.805Z,32.30
2022-11-27T00:50:38.334Z,26.13
2022-11-27T00:53:11.248Z,31.35
2022-11-27T00:55:46.422Z,34.20
2022-11-27T00:58:19.458Z,27.67
2022-11-27T01:00:59.620Z,28.65
2022-11-27T01:03:32.825Z,38.67
2022-11-27T01:06:06.793Z,26.35
2022-11-27T01:08:39.924Z,34.20
2022-11-27T01:11:14.835Z,36.38
2022-11-27T01:13:48.336Z,37.13
2022-11-27T01:16:22.044Z,39.60
2022-11-27T01:18:55.920Z,34.50
2022-11-27T01:21:29.617Z,35.38
2022-11-27T01:24:05.013Z,31.55
2022-11-27T01:26:37.545Z,37.30
2022-11-27T01:29:10.615Z,38.65
2022-11-27T01:31:43.294Z,35.65
2022-11-27T01:34:17.885Z,31.67
2022-11-27T01:36:50.432Z,29.55
2022-11-27T01:39:24.978Z,32.83
2022-11-27T01:41:57.462Z,25.17
2022-11-27T01:44:33.180Z,33.15
2022-11-27T01:47:07.586Z,27.42
2022-11-27T01:49:43.169Z,27.73
2022-11-27T01:52:19.242Z,34.92
2022-11-27T01:55:00.322Z,28.90
2022-11-27T01:57:39.923Z,25.30
2022-11-27T02:00:14.384Z,24.48
2022-11-27T02:02:47.173Z,24.63
2022-11-27T02:05:24.372Z,30.80
2022-11-27T02:08:02.220Z,23.50
2022-11-27T02:10:57.973Z,28.95
2022-11-27T02:13:32.920Z,30.25
2022-11-27T02:16:06.062Z,28.27
2022-11-27T02:18:45.060Z,28.83
2022-11-27T02:21:26.645Z,27.38
2022-11-27T02:24:04.923Z,34.00
2022-11-27T02:26:41.134Z,29.02
2022-11-27T02:29:14.819Z,33.57
2022-11-27T02:31:52.644Z,32.53
2022-11-27T02:34:27.982Z,31.15
2022-11-27T02:37:11.068Z,28.23
2022-11-27T02:39:50.065Z,38.13
2022-11-27T02:42:23.142Z,36.38
2022-11-27T02:44:59.006Z,33.58
2022-11-27T02:47:32.318Z,34.13
2022-11-27T02:50:05.793Z,32.92
2022-11-27T02:52:39.270Z,27.98
2022-11-27T02:55:13.207Z,38.15
2022-11-27T02:57:47.011Z,30.33
2022-11-27T03:00:19.669Z,32.97
2022-11-27T03:02:57.942Z,36.88
2022-11-27T03:05:33.076Z,32.33
2022-11-27T03:08:08.080Z,34.67
2022-11-27T03:10:46.468Z,35.22
2022-11-27T03:13:19.570Z,39.80
2022-11-27T03:16:00.024Z,30.90
2022-11-27T03:18:52.296Z,32.13
2022-11-27T03:21:41.466Z,28.58
2022-11-27T03:24:14.635Z,36.65
2022-11-27T03:26:47.368Z,38.95
2022-11-27T03:29:29.464Z,32.28
2022-11-27T03:32:02.647Z,38.72
2022-11-27T03:34:35.936Z,37.28
2022-11-27T03:37:08.766Z,48.28
2022-11-27T03:39:42.352Z,32.67
2022-11-27T03:42:27.351Z,33.00
2022-11-27T03:45:03.199Z,36.85
2022-11-27T03:47:48.980Z,33.47
2022-11-27T03:50:29.135Z,43.25
2022-11-27T03:53:15.574Z,53.75
2022-11-27T03:55:54.267Z,48.50
2022-11-27T03:58:33.435Z,43.53
2022-11-27T04:01:10.234Z,44.43
2022-11-27T04:03:45.345Z,51.75
2022-11-27T04:06:19.961Z,49.25
2022-11-27T04:08:52.692Z,45.17
2022-11-27T04:11:25.575Z,37.58
2022-11-27T04:13:58.117Z,41.42
2022-11-27T04:16:31.118Z,34.33
2022-11-27T04:19:03.788Z,34.00
2022-11-27T04:21:36.643Z,35.22
2022-11-27T04:24:09.240Z,33.65
2022-11-27T04:26:42.160Z,32.20
2022-11-27T04:29:14.829Z,41.15
2022-11-27T04:31:47.727Z,33.45
2022-11-27T04:34:20.576Z,29.80
2022-11-27T04:36:53.478Z,31.67
2022-11-27T04:39:26.090Z,32.65
2022-11-27T04:41:59.002Z,53.27
2022-11-27T04:44:31.523Z,31.58
2022-11-27T04:47:04.701Z,54.97
2022-11-27T04:49:37.402Z,39.13
2022-11-27T04:52:11.381Z,32.13
2022-11-27T04:54:43.926Z,30.58
2022-11-27T04:57:16.883Z,28.15
2022-11-27T04:59:49.376Z,25.48
2022-11-27T05:02:22.420Z,26.63
2022-11-27T05:04:55.396Z,31.70
2022-11-27T05:07:28.309Z,32.97
2022-11-27T05:10:00.919Z,28.55
2022-11-27T05:12:34.141Z,28.23
2022-11-27T05:15:07.240Z,33.10
2022-11-27T05:17:40.082Z,25.77
2022-11-27T05:20:12.629Z,30.00
2022-11-27T05:22:46.455Z,26.15
2022-11-27T05:25:18.944Z,21.55
2022-11-27T05:27:51.960Z,25.90
2022-11-27T05:30:24.565Z,34.33
2022-11-27T05:32:57.688Z,25.80
2022-11-27T05:35:33.936Z,22.98
2022-11-27T05:38:07.117Z,30.17
2022-11-27T05:40:40.313Z,30.80
2022-11-27T05:43:13.311Z,29.35
2022-11-27T05:45:45.953Z,34.95
2022-11-27T05:48:19.078Z,32.22
2022-11-27T05:50:51.581Z,34.95
2022-11-27T05:53:24.516Z,33.40
2022-11-27T05:56:04.342Z,32.88
2022-11-27T05:58:37.894Z,26.75
2022-11-27T06:01:11.206Z,28.17
2022-11-27T06:03:44.122Z,22.80
2022-11-27T06:06:17.822Z,40.47
2022-11-27T06:08:51.540Z,29.40
2022-11-27T06:11:24.138Z,31.02
2022-11-27T06:13:57.169Z,28.77
2022-11-27T06:16:29.814Z,29.05
2022-11-27T06:19:02.783Z,25.20
2022-11-27T06:21:35.341Z,35.75
2022-11-27T06:24:08.395Z,27.17
2022-11-27T06:26:41.990Z,31.75
2022-11-27T06:29:14.961Z,26.67
2022-11-27T06:31:47.552Z,33.63
2022-11-27T06:34:20.627Z,28.38
2022-11-27T06:36:53.314Z,21.45
2022-11-27T06:39:26.382Z,27.40
2022-11-27T06:41:58.964Z,21.70
2022-11-27T06:44:31.833Z,24.33
2022-11-27T06:47:04.390Z,27.30
2022-11-27T06:49:37.320Z,26.77
2022-11-27T06:52:09.827Z,44.53
2022-11-27T06:54:42.921Z,37.83
2022-11-27T06:57:15.636Z,30.33
2022-11-27T06:59:48.555Z,25.40
2022-11-27T07:02:21.127Z,32.67
2022-11-27T07:04:54.170Z,26.95
2022-11-27T07:07:26.753Z,28.63
2022-11-27T07:09:59.815Z,29.10
2022-11-27T07:12:32.285Z,28.65
2022-11-27T07:15:05.430Z,30.93
2022-11-27T07:17:38.436Z,27.30
2022-11-27T07:20:11.487Z,33.42
2022-11-27T07:22:44.071Z,27.58
2022-11-27T07:25:17.100Z,29.73
2022-11-27T07:27:49.773Z,26.70
2022-11-27T07:30:22.646Z,42.60
2022-11-27T07:32:55.240Z,47.30
2022-11-27T07:35:28.108Z,50.60
2022-11-27T07:38:00.785Z,50.28
2022-11-27T07:40:33.685Z,59.13
2022-11-27T07:43:06.412Z,41.25
2022-11-27T07:45:39.412Z,28.92
2022-11-27T07:48:12.073Z,32.38
2022-11-27T07:50:45.032Z,31.40
2022-11-27T07:53:17.730Z,35.08
2022-11-27T07:55:50.616Z,28.48
2022-11-27T07:58:23.150Z,27.75
2022-11-27T08:00:56.735Z,27.15
2022-11-27T08:03:29.730Z,29.73
2022-11-27T08:06:02.620Z,23.38
2022-11-27T08:08:35.245Z,29.50
2022-11-27T08:11:14.835Z,26.13
2022-11-27T08:13:47.375Z,26.50
2022-11-27T08:16:20.357Z,27.73
2022-11-27T08:18:53.154Z,27.85
2022-11-27T08:21:26.849Z,29.15
2022-11-27T08:23:59.420Z,26.63
2022-11-27T08:26:32.331Z,28.52
2022-11-27T08:29:06.846Z,24.42
2022-11-27T08:31:39.793Z,25.90
2022-11-27T08:34:12.468Z,25.53
2022-11-27T08:36:45.283Z,28.45
2022-11-27T08:39:17.926Z,33.50
2022-11-27T08:41:50.899Z,24.27
2022-11-27T08:44:23.448Z,30.27
2022-11-27T08:46:56.697Z,29.55
2022-11-27T08:49:29.308Z,29.17
2022-11-27T08:52:02.243Z,30.08
2022-11-27T08:54:35.231Z,32.38
2022-11-27T08:57:08.115Z,36.17
2022-11-27T08:59:40.675Z,32.08
2022-11-27T09:02:13.842Z,29.53
2022-11-27T09:04:46.527Z,28.13
2022-11-27T09:07:19.886Z,32.17
2022-11-27T09:09:52.429Z,31.23
2022-11-27T09:12:25.442Z,36.97
2022-11-27T09:14:57.992Z,45.75
2022-11-27T09:17:31.164Z,31.83
2022-11-27T09:20:05.765Z,31.25
2022-11-27T09:22:38.729Z,34.95
2022-11-27T09:25:11.551Z,27.70
2022-11-27T09:27:44.505Z,31.00
2022-11-27T09:30:17.092Z,28.08
2022-11-27T09:32:50.046Z,30.95
2022-11-27T09:35:22.861Z,36.78
2022-11-27T09:37:55.908Z,49.85
2022-11-27T09:40:28.503Z,51.25
2022-11-27T09:43:11.378Z,53.17
2022-11-27T09:45:46.906Z,38.03
2022-11-27T09:48:23.108Z,39.05
2022-11-27T09:50:56.564Z,33.13
2022-11-27T09:53:47.602Z,36.85
2022-11-27T09:56:20.785Z,33.38
2022-11-27T09:58:57.379Z,35.53
2022-11-27T10:01:40.526Z,30.33
2022-11-27T10:04:19.312Z,32.85
2022-11-27T10:07:00.804Z,27.75
2022-11-27T10:09:45.717Z,28.75
2022-11-27T10:12:32.837Z,28.02
2022-11-27T10:15:05.695Z,27.98
2022-11-27T10:17:41.661Z,26.85
2022-11-27T10:20:14.579Z,21.83
2022-11-27T10:22:56.282Z,23.02
2022-11-27T10:25:40.226Z,23.73
2022-11-27T10:28:15.548Z,21.38
2022-11-27T10:30:53.204Z,20.52
2022-11-27T10:33:27.855Z,25.77
2022-11-27T10:36:01.482Z,21.80
2022-11-27T10:38:36.612Z,31.67
2022-11-27T10:41:34.351Z,23.00
2022-11-27T10:44:19.250Z,17.83
2022-11-27T10:46:53.385Z,14.52
2022-11-27T10:49:26.428Z,21.30
2022-11-27T10:51:59.726Z,19.17
2022-11-27T10:54:34.643Z,24.85
2022-11-27T10:57:13.998Z,23.35
2022-11-27T11:00:01.986Z,24.23
2022-11-27T11:02:39.201Z,27.70
2022-11-27T11:05:35.007Z,25.90
2022-11-27T11:08:18.842Z,26.63
2022-11-27T11:10:51.721Z,22.02
2022-11-27T11:13:31.978Z,30.45
2022-11-27T11:16:06.604Z,21.53
2022-11-27T11:18:49.351Z,25.87
2022-11-27T11:21:31.332Z,27.02
2022-11-27T11:24:06.636Z,22.92
2022-11-27T11:26:46.637Z,29.15
2022-11-27T11:29:27.427Z,30.80
2022-11-27T11:32:05.984Z,31.42
2022-11-27T11:34:55.018Z,36.67
2022-11-27T11:37:38.414Z,26.90
2022-11-27T11:40:16.292Z,29.93
2022-11-27T11:42:59.445Z,28.33
2022-11-27T11:45:33.465Z,25.75
2022-11-27T11:48:23.949Z,27.33
2022-11-27T11:51:32.219Z,24.65
2022-11-27T11:54:20.693Z,25.13
2022-11-27T11:56:55.272Z,29.48
2022-11-27T11:59:30.535Z,23.80
2022-11-27T12:02:17.784Z,27.27
2022-11-27T12:05:06.667Z,31.70
2022-11-27T12:07:52.580Z,26.88
2022-11-27T12:10:46.027Z,26.50
2022-11-27T12:13:27.853Z,25.30
2022-11-27T12:16:13.410Z,29.92
2022-11-27T12:19:05.086Z,27.75
2022-11-27T12:21:37.581Z,23.13
2022-11-27T12:24:21.205Z,30.93
2022-11-27T12:26:54.764Z,31.00
2022-11-27T12:29:30.878Z,28.40
2022-11-27T12:32:03.802Z,35.88
2022-11-27T12:34:40.538Z,27.23
2022-11-27T12:37:14.189Z,28.23
2022-11-27T12:40:06.598Z,23.08
2022-11-27T12:42:39.048Z,50.53
2022-11-27T12:45:12.452Z,25.58
2022-11-27T12:47:48.407Z,35.03
2022-11-27T12:50:30.890Z,31.40
2022-11-27T12:53:09.165Z,25.65
2022-11-27T12:55:45.522Z,27.75
2022-11-27T12:58:23.969Z,36.03
2022-11-27T13:01:08.304Z,32.22
2022-11-27T13:03:40.826Z,35.57
2022-11-27T13:06:16.591Z,32.85
2022-11-27T13:08:58.200Z,31.38
2022-11-27T13:11:33.977Z,35.10
2022-11-27T13:14:25.746Z,43.47
2022-11-27T13:17:02.145Z,39.23
2022-11-27T13:19:46.437Z,34.88
2022-11-27T13:22:39.549Z,31.15
2022-11-27T13:25:13.528Z,40.97
2022-11-27T13:27:49.653Z,38.70
2022-11-27T13:30:24.193Z,43.78
2022-11-27T13:32:58.476Z,42.72
2022-11-27T13:35:30.992Z,38.67
2022-11-27T13:38:08.693Z,41.42
2022-11-27T13:40:49.090Z,50.20
2022-11-27T13:43:22.218Z,42.87
2022-11-27T13:46:03.362Z,44.47
2022-11-27T13:48:41.536Z,43.67
2022-11-27T13:51:22.469Z,48.80
2022-11-27T13:54:10.179Z,60.30
2022-11-27T13:56:42.825Z,59.95
2022-11-27T13:59:20.246Z,83.22
2022-11-27T14:01:58.380Z,65.55
2022-11-27T14:04:32.376Z,55.73
2022-11-27T14:07:10.089Z,39.88
2022-11-27T14:09:47.329Z,55.05
2022-11-27T14:12:20.108Z,54.67
2022-11-27T14:15:01.023Z,81.65
2022-11-27T14:17:35.286Z,88.50
2022-11-27T14:20:15.209Z,85.80
2022-11-27T14:23:11.076Z,61.23
2022-11-27T14:25:45.220Z,46.22
2022-11-27T14:28:22.249Z,63.38
2022-11-27T14:30:59.542Z,83.80
2022-11-27T14:33:47.541Z,76.20
2022-11-27T14:36:32.188Z,65.63
2022-11-27T14:39:05.984Z,63.95
2022-11-27T14:41:39.146Z,52.72
2022-11-27T14:44:15.521Z,46.05
2022-11-27T14:46:48.654Z,45.27
2022-11-27T14:49:23.833Z,50.92
2022-11-27T14:51:59.037Z,46.85
2022-11-27T14:54:39.553Z,47.55
2022-11-27T14:57:15.478Z,39.88
2022-11-27T14:59:48.072Z,50.00
2022-11-27T15:02:26.066Z,52.10
2022-11-27T15:05:02.483Z,48.10
2022-11-27T15:07:45.401Z,53.55
2022-11-27T15:10:32.970Z,55.55
2022-11-27T15:13:07.412Z,56.70
2022-11-27T15:15:42.475Z,56.47
2022-11-27T15:18:20.874Z,100.45
2022-11-27T15:20:53.588Z,68.57
2022-11-27T15:23:28.393Z,48.55
2022-11-27T15:26:00.904Z,66.97
2022-11-27T15:28:34.438Z,60.55
2022-11-27T15:31:25.681Z,66.68
2022-11-27T15:34:00.247Z,66.72
2022-11-27T15:36:43.483Z,60.80
2022-11-27T15:39:19.492Z,50.75
2022-11-27T15:41:56.238Z,44.67
2022-11-27T15:44:30.186Z,54.97
2022-11-27T15:47:03.555Z,61.22
2022-11-27T15:49:36.560Z,60.72
2022-11-27T15:52:09.109Z,55.75
2022-11-27T15:54:42.244Z,66.38
2022-11-27T15:57:15.437Z,59.80
2022-11-27T15:59:48.405Z,90.65
2022-11-27T16:02:20.949Z,91.30
2022-11-27T16:04:54.481Z,86.97
2022-11-27T16:07:27.120Z,76.13
2022-11-27T16:10:00.330Z,65.55
2022-11-27T16:12:33.567Z,52.22
2022-11-27T16:15:06.971Z,106.70
2022-11-27T16:17:39.660Z,110.88
2022-11-27T16:20:12.887Z,74.97
2022-11-27T16:22:45.656Z,55.63
2022-11-27T16:25:22.241Z,64.90
2022-11-27T16:28:00.958Z,64.60
2022-11-27T16:30:35.674Z,52.43
2022-11-27T16:33:08.591Z,52.22
2022-11-27T16:35:42.241Z,49.35
2022-11-27T16:38:14.846Z,61.17
2022-11-27T16:40:49.177Z,61.57
2022-11-27T16:43:22.360Z,51.03
2022-11-27T16:46:03.448Z,58.78
2022-11-27T16:48:36.285Z,47.75
2022-11-27T16:51:10.622Z,47.45
2022-11-27T16:53:44.771Z,67.63
2022-11-27T16:56:18.989Z,46.17
2022-11-27T16:58:52.535Z,45.58
2022-11-27T17:01:27.568Z,55.83
2022-11-27T17:04:00.509Z,51.97
2022-11-27T17:06:33.888Z,49.47
2022-11-27T17:09:07.773Z,57.88
2022-11-27T17:11:45.258Z,59.80
2022-11-27T17:14:19.944Z,44.90
2022-11-27T17:16:53.020Z,44.90
2022-11-27T17:19:27.472Z,62.50
2022-11-27T17:22:00.566Z,79.90
2022-11-27T17:24:35.868Z,75.33
2022-11-27T17:27:10.088Z,62.20
2022-11-27T17:29:43.260Z,72.88
2022-11-27T17:32:17.757Z,65.07
2022-11-27T17:34:50.431Z,56.20
2022-11-27T17:37:23.743Z,54.33
2022-11-27T17:39:56.389Z,46.63
2022-11-27T17:42:29.340Z,51.58
2022-11-27T17:45:02.071Z,44.80
2022-11-27T17:47:35.153Z,55.55
2022-11-27T17:50:08.546Z,44.45
2022-11-27T17:52:41.725Z,57.67
2022-11-27T17:55:14.275Z,50.70
2022-11-27T17:57:47.398Z,45.08
2022-11-27T18:00:20.145Z,51.95
2022-11-27T18:02:53.103Z,40.75
2022-11-27T18:05:26.219Z,50.57
2022-11-27T18:08:01.263Z,48.33
2022-11-27T18:10:34.720Z,54.17
2022-11-27T18:13:08.643Z,41.17
2022-11-27T18:15:43.094Z,46.90
2022-11-27T18:18:16.135Z,44.23
2022-11-27T18:20:48.851Z,54.77
2022-11-27T18:23:21.790Z,43.92
2022-11-27T18:25:54.488Z,63.93
2022-11-27T18:28:28.436Z,57.42
2022-11-27T18:31:08.008Z,63.47
2022-11-27T18:33:41.302Z,45.60
2022-11-27T18:36:14.726Z,49.35
2022-11-27T18:38:47.828Z,61.92
2022-11-27T18:41:28.585Z,57.70
2022-11-27T18:44:01.677Z,50.78
2022-11-27T18:46:34.664Z,53.30
2022-11-27T18:49:08.453Z,45.43
2022-11-27T18:51:41.052Z,46.72
2022-11-27T18:54:14.572Z,54.43
2022-11-27T18:56:47.329Z,49.87
2022-11-27T18:59:20.183Z,58.80
2022-11-27T19:01:53.979Z,51.08
2022-11-27T19:04:27.129Z,54.90
2022-11-27T19:06:59.725Z,55.75
2022-11-27T19:09:32.692Z,61.08
2022-11-27T19:12:05.846Z,49.57
2022-11-27T19:14:40.423Z,61.60
2022-11-27T19:17:13.925Z,69.22
2022-11-27T19:20:04.673Z,59.80
2022-11-27T19:22:38.187Z,56.58
2022-11-27T19:25:11.506Z,58.22
2022-11-27T19:27:44.300Z,58.93
2022-11-27T19:30:18.270Z,55.42
2022-11-27T19:32:51.098Z,56.63
2022-11-27T19:35:26.989Z,55.53
2022-11-27T19:38:00.512Z,54.42
2022-11-27T19:40:39.365Z,66.37
2022-11-27T19:43:12.570Z,68.70
2022-11-27T19:45:46.111Z,59.53
2022-11-27T19:48:23.125Z,59.30
2022-11-27T19:51:01.319Z,67.47
2022-11-27T19:53:34.287Z,65.43
2022-11-27T19:56:07.748Z,63.53
2022-11-27T19:58:41.566Z,58.92
2022-11-27T20:01:15.824Z,65.68
2022-11-27T20:03:48.676Z,70.43
2022-11-27T20:06:23.642Z,62.53
2022-11-27T20:08:59.814Z,58.08
2022-11-27T20:11:35.688Z,55.77
2022-11-27T20:14:10.129Z,69.90
2022-11-27T20:16:43.596Z,74.10
2022-11-27T20:19:16.507Z,67.28
2022-11-27T20:21:51.291Z,61.53
2022-11-27T20:24:24.479Z,56.93
2022-11-27T20:26:57.385Z,51.45
2022-11-27T20:29:32.058Z,51.53
2022-11-27T20:32:05.166Z,49.28
2022-11-27T20:34:39.496Z,48.80
2022-11-27T20:37:14.565Z,46.97
2022-11-27T20:39:47.322Z,49.47
2022-11-27T20:42:22.574Z,50.72
2022-11-27T20:44:55.217Z,51.03
2022-11-27T20:47:28.470Z,54.45
2022-11-27T20:50:02.461Z,54.83
2022-11-27T20:52:35.605Z,51.27
2022-11-27T20:55:08.415Z,52.45
2022-11-27T20:57:41.400Z,51.95
2022-11-27T21:00:14.390Z,49.20
2022-11-27T21:02:47.722Z,51.35
2022-11-27T21:05:20.624Z,48.70
2022-11-27T21:07:53.962Z,50.95
2022-11-27T21:10:26.926Z,50.95
2022-11-27T21:12:59.902Z,54.65
2022-11-27T21:15:32.809Z,44.25
2022-11-27T21:18:05.938Z,46.65
2022-11-27T21:20:38.511Z,45.00
2022-11-27T21:23:15.649Z,45.75
2022-11-27T21:25:48.668Z,45.42
2022-11-27T21:28:21.648Z,45.15
2022-11-27T21:30:54.284Z,49.70
2022-11-27T21:33:27.201Z,57.15
2022-11-27T21:36:00.093Z,46.83
2022-11-27T21:38:33.612Z,47.20
2022-11-27T21:41:06.767Z,56.03
2022-11-27T21:43:42.228Z,49.58
2022-11-27T21:46:17.619Z,55.43
2022-11-27T21:48:51.898Z,54.47
2022-11-27T21:51:26.040Z,59.03
2022-11-27T21:54:02.389Z,50.85
2022-11-27T21:56:37.939Z,55.22
2022-11-27T21:59:14.365Z,49.58
2022-11-27T22:01:47.047Z,51.83
2022-11-27T22:04:20.198Z,48.88
2022-11-27T22:06:52.976Z,57.08
2022-11-27T22:09:25.960Z,54.35
2022-11-27T22:11:58.438Z,54.70
2022-11-27T22:14:31.462Z,52.33
2022-11-27T22:17:04.181Z,54.83
2022-11-27T22:19:42.510Z,48.33
2022-11-27T22:22:14.998Z,48.60
2022-11-27T22:24:48.055Z,49.53
2022-11-27T22:27:21.341Z,53.92
2022-11-27T22:29:54.793Z,55.10
2022-11-27T22:32:27.744Z,50.03
2022-11-27T22:35:00.883Z,56.03
2022-11-27T22:37:33.748Z,49.67
2022-11-27T22:40:07.127Z,51.00
2022-11-27T22:42:39.789Z,59.23
2022-11-27T22:45:13.098Z,49.53
2022-11-27T22:47:45.675Z,49.67
2022-11-27T22:50:18.778Z,52.25
2022-11-27T22:52:55.714Z,48.05
2022-11-27T22:55:31.054Z,53.78
2022-11-27T22:58:05.132Z,54.75
2022-11-27T23:00:39.636Z,54.35
2022-11-27T23:03:12.196Z,45.05
2022-11-27T23:05:45.653Z,53.92
2022-11-27T23:08:19.320Z,46.77
2022-11-27T23:10:52.580Z,48.08
2022-11-27T23:13:25.096Z,49.55
2022-11-27T23:15:58.213Z,59.67
2022-11-27T23:18:30.891Z,53.95
2022-11-27T23:21:07.210Z,45.33
2022-11-27T23:23:39.786Z,51.30
2022-11-27T23:26:17.888Z,44.40
2022-11-27T23:28:52.705Z,47.70
2022-11-27T23:31:31.468Z,48.73
2022-11-27T23:34:07.676Z,45.67
2022-11-27T23:36:40.665Z,51.28
2022-11-27T23:39:14.229Z,48.58
2022-11-27T23:41:49.634Z,50.75
2022-11-27T23:44:22.233Z,50.17
2022-11-27T23:46:55.323Z,45.00
2022-11-27T23:49:28.081Z,49.13
2022-11-27T23:52:01.089Z,49.88
2022-11-27T23:54:33.668Z,44.00
2022-11-27T23:57:06.626Z,45.97
2022-11-27T23:59:39.845Z,47.88
